Arlington, CO

6:30 PM MDT on July 23, 2016 (GMT -0600)
NE Crowley County | | Change Station
Active Advisory: Severe Thunderstorm Warning

Elev 4590 ft 38.45 °N, 103.52 °W | Updated 14 seconds ago

Clear
Clear
96.8 °F
Feels Like 93 °F
N
0.0
Wind Variable Wind from NE
Gusts 12.0 mph

Today
High -- | Low -- °F
--% Chance of Precip.
Yesterday
High -- | Low -- °F
Precip. -- in
Pressure 29.69 in
Visibility 10.0 miles
Clouds Clear
Heat Index 93 °F
Dew Point 45 °F
Humidity 17%
Rainfall 0.00 in
Snow Depth Not available.
5:48 AM 8:10 PM
Waning Gibbous, 81% visible
METAR KLHX 232353Z AUTO 10005KT 10SM CLR 38/09 A2992 RMK AO2 SLP054 T03830094 10411 20361 56012
Pressure 29.69 in
Visibility 10.0 miles
Clouds Clear
Heat Index 93 °F
Dew Point 45 °F
Humidity 17%
Rainfall 0.00 in
Snow Depth Not available.
5:48 AM 8:10 PM
Waning Gibbous, 81% visible
METAR KLHX 232353Z AUTO 10005KT 10SM CLR 38/09 A2992 RMK AO2 SLP054 T03830094 10411 20361 56012

10-Day Weather Forecast

Almanac

Astronomy

Jul. 23, 2016 Rise Set
Actual Time
Civil Twilight
Nautical Twilight
Astronomical Twilight
Moon
Length of Visible Light
Length of Day
Tomorrow will be .
, % of the Moon is Illuminated

Today's Extremes

State Highs State Lows

Community

WunderPhotos

Upload Photos

1,926,979 photos uploaded!

WunderBlog® & News

Nearby

Air Quality

  Air Quality AQ Index Pollutant
Not available.

Snow Depth

Station Depth Elevation

Earthquake Activity

City Distance Mag. Time & Date
Minimum magnitude displayed is 2.5.

Coastal Water Temperatures

Place Temperature

Stations

Nearby Weather Stations

Station Location Temp. Windchill Dew Point Humidity Wind Precip. Elev Updated Type
                   

Watches & Warnings

Severe Thunderstorm Warning
Issued: 6:15 PM MDT Jul. 23, 2016 – National Weather Service

... A Severe Thunderstorm Warning remains in effect until 645 PM MDT
for southeastern Kiowa County...

At 615 PM MDT... a severe thunderstorm was located near Sheridan
Lake... or 28 miles northeast of Lamar... moving east at 15 mph.

Hazard... 70 mph wind gusts and quarter size hail.

Source... radar indicated.

Impact... hail damage to vehicles is expected. Expect considerable
         tree damage. Wind damage is also likely to Mobile homes...
         roofs... and outbuildings.

Locations impacted include...
Towner.

Precautionary/preparedness actions...

For your protection move to an interior room on the lowest floor of a
building.

Prepare immediately for large hail and damaging winds. People outside
should move to a shelter... inside a strong building and away from
windows.

Continuous cloud to ground lightning is occurring with this storm.
Move indoors immediately. Lightning is one of nature's leading
killers. Remember... if you can hear thunder... you are close enough to
be struck by lightning.


Lat... Lon 3829 10236 3842 10237 3855 10205 3827 10205
time... Mot... loc 0015z 254deg 13kt 3840 10228

Hail... 1.00in
wind... 70mph


Lw